createdAt,value
2023-04-05T00:02:21.553Z,99.90
2023-04-05T00:04:52.672Z,99.90
2023-04-05T00:07:22.313Z,99.90
2023-04-05T00:09:51.865Z,99.90
2023-04-05T00:12:21.478Z,99.90
2023-04-05T00:14:51.438Z,99.90
2023-04-05T00:17:21.036Z,99.90
2023-04-05T00:19:51.883Z,99.90
2023-04-05T00:22:23.028Z,99.90
2023-04-05T00:24:52.513Z,99.90
2023-04-05T00:27:21.988Z,99.90
2023-04-05T00:29:51.527Z,99.90
2023-04-05T00:32:21.604Z,99.90
2023-04-05T00:34:52.495Z,99.90
2023-04-05T00:37:23.688Z,99.90
2023-04-05T00:39:53.970Z,99.90
2023-04-05T00:42:24.055Z,99.90
2023-04-05T00:44:53.602Z,99.90
2023-04-05T00:47:23.673Z,99.90
2023-04-05T00:49:53.496Z,99.90
2023-04-05T00:52:23.513Z,99.90
2023-04-05T00:54:53.723Z,99.90
2023-04-05T00:57:25.062Z,99.90
2023-04-05T00:59:55.148Z,99.90
2023-04-05T01:02:38.313Z,99.90
2023-04-05T01:05:17.083Z,99.90
2023-04-05T01:07:49.612Z,99.90
2023-04-05T01:10:21.400Z,99.90
2023-04-05T01:12:51.515Z,99.90
2023-04-05T01:15:21.090Z,99.90
2023-04-05T01:17:50.593Z,99.90
2023-04-05T01:20:20.674Z,99.90
2023-04-05T01:22:59.153Z,99.90
2023-04-05T01:25:54.256Z,99.90
2023-04-05T01:28:36.873Z,99.90
2023-04-05T01:31:15.579Z,99.90
2023-04-05T01:34:12.790Z,99.90
2023-04-05T01:36:48.678Z,99.90
2023-04-05T01:39:21.805Z,99.90
2023-04-05T01:41:51.916Z,99.90
2023-04-05T01:44:21.455Z,99.90
2023-04-05T01:46:50.955Z,99.90
2023-04-05T01:49:21.667Z,99.90
2023-04-05T01:51:51.779Z,99.90
2023-04-05T01:54:21.282Z,99.90
2023-04-05T01:56:50.821Z,99.90
2023-04-05T01:59:21.272Z,99.90
2023-04-05T02:01:52.103Z,99.90
2023-04-05T02:04:22.220Z,99.90
2023-04-05T02:06:51.712Z,99.90
2023-04-05T02:09:21.297Z,99.90
2023-04-05T02:11:51.298Z,99.90
2023-04-05T02:14:20.767Z,99.90
2023-04-05T02:16:51.275Z,99.90
2023-04-05T02:19:23.568Z,99.90
2023-04-05T02:21:55.464Z,99.90
2023-04-05T02:25:52.366Z,99.90
2023-04-05T02:28:22.050Z,99.90
2023-04-05T02:30:53.451Z,99.90
2023-04-05T02:33:23.358Z,99.90
2023-04-05T02:35:53.931Z,99.90
2023-04-05T02:38:23.488Z,99.90
2023-04-05T02:40:53.019Z,99.90
2023-04-05T02:43:22.516Z,99.90
2023-04-05T02:45:53.107Z,99.90
2023-04-05T02:48:22.986Z,99.90
2023-04-05T02:50:53.416Z,99.90
2023-04-05T02:53:23.030Z,99.90
2023-04-05T02:56:00.047Z,99.90
2023-04-05T02:58:29.799Z,99.90
2023-04-05T03:01:02.198Z,99.90
2023-04-05T03:03:37.505Z,99.90
2023-04-05T03:06:10.954Z,99.90
2023-04-05T03:08:48.240Z,99.90
2023-04-05T03:11:19.483Z,99.90
2023-04-05T03:13:50.746Z,99.90
2023-04-05T03:16:22.757Z,99.90
2023-04-05T03:18:52.337Z,99.90
2023-04-05T03:21:22.047Z,99.90
2023-04-05T03:23:53.529Z,99.90
2023-04-05T03:26:24.756Z,99.90
2023-04-05T03:28:55.311Z,99.90
2023-04-05T03:31:26.577Z,99.90
2023-04-05T03:33:57.287Z,99.90
2023-04-05T03:36:35.697Z,99.90
2023-04-05T03:39:05.906Z,99.90
2023-04-05T03:41:35.501Z,99.90
2023-04-05T03:44:07.113Z,99.90
2023-04-05T03:46:38.103Z,99.90
2023-04-05T03:49:08.847Z,99.90
2023-04-05T03:51:38.316Z,99.90
2023-04-05T03:54:07.797Z,99.90
2023-04-05T03:56:38.468Z,99.90
2023-04-05T03:59:12.742Z,99.90
2023-04-05T04:01:42.646Z,99.90
2023-04-05T04:04:13.754Z,99.90
2023-04-05T04:06:46.421Z,99.90
2023-04-05T04:09:17.605Z,99.90
2023-04-05T04:11:47.162Z,99.90
2023-04-05T04:14:18.376Z,99.90
2023-04-05T04:16:49.988Z,99.90
2023-04-05T04:19:21.483Z,99.90
2023-04-05T04:22:04.866Z,99.90
2023-04-05T04:24:46.313Z,99.90
2023-04-05T04:27:36.011Z,99.90
2023-04-05T04:30:15.131Z,99.90
2023-04-05T04:32:55.740Z,99.90
2023-04-05T04:35:37.473Z,99.90
2023-04-05T04:38:10.604Z,99.90
2023-04-05T04:40:54.141Z,99.90
2023-04-05T04:43:28.230Z,99.90
2023-04-05T04:46:04.086Z,99.90
2023-04-05T04:48:37.020Z,99.90
2023-04-05T04:51:11.160Z,99.90
2023-04-05T04:53:40.700Z,99.90
2023-04-05T04:56:10.734Z,99.90
2023-04-05T04:58:40.520Z,99.90
2023-04-05T05:01:11.464Z,99.90
2023-04-05T05:03:41.548Z,99.90
2023-04-05T05:06:12.561Z,99.90
2023-04-05T05:08:42.539Z,99.90
2023-04-05T05:11:12.014Z,99.90
2023-04-05T05:13:41.859Z,99.90
2023-04-05T05:16:13.535Z,99.90
2023-04-05T05:18:44.627Z,99.90
2023-04-05T05:21:14.298Z,99.90
2023-04-05T05:23:44.119Z,99.90
2023-04-05T05:26:15.421Z,99.90
2023-04-05T05:28:46.041Z,99.90
2023-04-05T05:31:17.338Z,99.90
2023-04-05T05:33:48.620Z,99.90
2023-04-05T05:36:20.262Z,99.90
2023-04-05T05:38:49.792Z,99.90
2023-04-05T05:41:19.339Z,99.90
2023-04-05T05:43:48.986Z,99.90
2023-04-05T05:46:21.146Z,99.90
2023-04-05T05:48:50.702Z,99.90
2023-04-05T05:51:20.819Z,99.90
2023-04-05T05:53:50.631Z,99.90
2023-04-05T05:56:21.062Z,99.90
2023-04-05T05:58:50.803Z,99.90
2023-04-05T06:01:22.912Z,99.90
2023-04-05T06:03:52.976Z,99.90
2023-04-05T06:06:23.690Z,99.90
2023-04-05T06:08:53.396Z,99.90
2023-04-05T06:11:24.876Z,99.90
2023-04-05T06:13:57.176Z,99.90
2023-04-05T06:16:27.208Z,99.90
2023-04-05T06:18:56.720Z,99.90
2023-04-05T06:21:26.983Z,99.90
2023-04-05T06:23:56.831Z,99.90
2023-04-05T06:26:30.779Z,99.90
2023-04-05T06:29:00.356Z,99.90
2023-04-05T06:31:35.932Z,99.90
2023-04-05T06:34:05.765Z,99.90
2023-04-05T06:36:35.310Z,99.90
2023-04-05T06:39:06.566Z,99.90
2023-04-05T06:41:36.182Z,99.90
2023-04-05T06:44:05.824Z,99.90
2023-04-05T06:46:35.547Z,99.90
2023-04-05T06:49:05.016Z,99.90
2023-04-05T06:51:34.493Z,99.90
2023-04-05T06:54:04.333Z,99.90
2023-04-05T06:56:33.951Z,99.90
2023-04-05T06:59:03.495Z,99.90
2023-04-05T07:01:33.901Z,99.90
2023-04-05T07:04:03.586Z,99.90
2023-04-05T07:06:34.954Z,99.90
2023-04-05T07:09:04.491Z,99.90
2023-04-05T07:11:34.004Z,99.90
2023-04-05T07:14:03.867Z,99.90
2023-04-05T07:16:33.501Z,99.90
2023-04-05T07:19:04.302Z,99.90
2023-04-05T07:21:33.866Z,99.90
2023-04-05T07:24:03.411Z,99.90
2023-04-05T07:26:34.794Z,99.90
2023-04-05T07:29:04.872Z,99.90
2023-04-05T07:31:34.379Z,99.90
2023-04-05T07:34:03.873Z,99.90
2023-04-05T07:36:35.913Z,99.90
2023-04-05T07:39:05.795Z,99.90
2023-04-05T07:41:39.064Z,99.90
2023-04-05T07:44:09.468Z,99.90
2023-04-05T07:46:40.786Z,99.90
2023-04-05T07:49:10.249Z,99.90
2023-04-05T07:51:40.087Z,99.90
2023-04-05T07:54:10.734Z,99.90
2023-04-05T07:56:40.487Z,99.90
2023-04-05T07:59:10.461Z,99.90
2023-04-05T08:01:41.114Z,99.90
2023-04-05T08:04:10.802Z,99.90
2023-04-05T08:06:40.648Z,99.90
2023-04-05T08:09:12.175Z,99.90
2023-04-05T08:11:42.403Z,99.90
2023-04-05T08:14:12.315Z,99.90
2023-04-05T08:16:42.764Z,99.90
2023-04-05T08:19:15.075Z,99.90
2023-04-05T08:21:43.681Z,99.90
2023-04-05T08:24:13.602Z,99.90
2023-04-05T08:26:44.322Z,99.90
2023-04-05T08:29:13.786Z,99.90
2023-04-05T08:31:43.661Z,99.90
2023-04-05T08:34:13.183Z,99.90
2023-04-05T08:36:42.746Z,99.90
2023-04-05T08:39:13.752Z,99.90
2023-04-05T08:41:46.639Z,99.90
2023-04-05T08:44:17.850Z,99.90
2023-04-05T08:46:49.648Z,99.90
2023-04-05T08:49:19.184Z,99.90
2023-04-05T08:51:50.501Z,99.90
2023-04-05T08:54:20.013Z,99.90
2023-04-05T08:56:50.433Z,99.90
2023-04-05T08:59:20.487Z,99.90
2023-04-05T09:01:53.024Z,99.90
2023-04-05T09:04:28.843Z,99.90
2023-04-05T09:07:00.435Z,99.90
2023-04-05T09:09:33.633Z,99.90
2023-04-05T09:12:05.603Z,99.90
2023-04-05T09:14:40.081Z,99.90
2023-04-05T09:17:11.689Z,99.90
2023-04-05T09:19:41.374Z,99.90
2023-04-05T09:22:13.180Z,99.90
2023-04-05T09:24:44.700Z,99.90
2023-04-05T09:27:20.600Z,99.90
2023-04-05T09:29:52.091Z,99.90
2023-04-05T09:32:24.680Z,99.90
2023-04-05T09:34:55.427Z,99.90
2023-04-05T09:37:26.677Z,99.90
2023-04-05T09:40:07.204Z,99.90
2023-04-05T09:42:47.704Z,99.90
2023-04-05T09:45:18.898Z,99.90
2023-04-05T09:47:58.219Z,99.90
2023-04-05T09:50:29.690Z,99.90
2023-04-05T09:53:19.464Z,99.90
2023-04-05T09:55:50.848Z,99.90
2023-04-05T09:58:23.827Z,99.90
2023-04-05T10:01:03.325Z,99.90
2023-04-05T10:03:27.461Z,99.90
2023-04-05T10:05:58.166Z,99.90
2023-04-05T10:08:28.105Z,99.90
2023-04-05T10:11:00.618Z,99.90
2023-04-05T10:13:31.661Z,99.90
2023-04-05T10:16:03.014Z,99.90
2023-04-05T10:18:37.474Z,99.90
2023-04-05T10:21:09.246Z,99.90
2023-04-05T10:23:41.807Z,99.90
2023-04-05T10:26:38.715Z,99.90
2023-04-05T10:29:11.357Z,99.90
2023-04-05T10:31:52.447Z,99.90
2023-04-05T10:34:31.114Z,99.90
2023-04-05T10:37:03.056Z,99.90
2023-04-05T10:39:44.495Z,99.90
2023-04-05T10:42:31.817Z,99.90
2023-04-05T10:45:05.616Z,99.90
2023-04-05T10:47:38.210Z,99.90
2023-04-05T10:50:10.366Z,99.90
2023-04-05T10:52:42.504Z,99.90
2023-04-05T10:55:13.441Z,99.90
2023-04-05T10:57:44.397Z,99.90
2023-04-05T11:00:16.576Z,99.90
2023-04-05T11:02:46.354Z,99.90
2023-04-05T11:05:37.987Z,99.90
2023-04-05T11:08:12.806Z,99.90
2023-04-05T11:10:43.460Z,99.90
2023-04-05T11:13:13.107Z,99.90
2023-04-05T11:15:42.775Z,99.90
2023-04-05T11:18:21.986Z,99.90
2023-04-05T11:20:55.147Z,99.90
2023-04-05T11:23:26.417Z,99.90
2023-04-05T11:25:59.993Z,99.90
2023-04-05T11:28:43.358Z,99.90
2023-04-05T11:31:22.756Z,99.90
2023-04-05T11:33:59.925Z,99.90
2023-04-05T11:36:35.355Z,99.90
2023-04-05T11:39:23.128Z,99.90
2023-04-05T11:42:03.727Z,99.90
2023-04-05T11:44:45.179Z,99.90
2023-04-05T11:47:20.504Z,99.90
2023-04-05T11:49:54.107Z,99.90
2023-04-05T11:52:23.554Z,99.90
2023-04-05T11:54:54.395Z,99.90
2023-04-05T11:57:25.199Z,99.90
2023-04-05T11:59:55.652Z,99.90
2023-04-05T12:02:26.798Z,99.90
2023-04-05T12:04:58.429Z,99.90
2023-04-05T12:07:31.941Z,99.90
2023-04-05T12:10:09.239Z,99.90
2023-04-05T12:12:40.860Z,99.90
2023-04-05T12:15:21.005Z,99.90
2023-04-05T12:17:54.831Z,99.90
2023-04-05T12:20:26.634Z,99.90
2023-04-05T12:22:57.948Z,99.90
2023-04-05T12:25:28.199Z,99.90
2023-04-05T12:27:58.884Z,99.90
2023-04-05T12:30:31.199Z,99.90
2023-04-05T12:33:00.381Z,99.90
2023-04-05T12:35:35.833Z,99.90
2023-04-05T12:38:10.148Z,99.90
2023-04-05T12:40:42.738Z,99.90
2023-04-05T12:43:12.836Z,99.90
2023-04-05T12:45:43.989Z,99.90
2023-04-05T12:48:16.943Z,99.90
2023-04-05T12:50:48.740Z,99.40
2023-04-05T12:53:21.376Z,99.90
2023-04-05T12:55:58.990Z,99.90
2023-04-05T12:58:40.141Z,99.90
2023-04-05T13:01:10.730Z,99.90
2023-04-05T13:03:40.628Z,99.90
2023-04-05T13:06:11.057Z,99.90
2023-04-05T13:08:40.532Z,99.90
2023-04-05T13:11:10.140Z,99.90
2023-04-05T13:13:39.703Z,99.90
2023-04-05T13:16:09.347Z,99.90
2023-04-05T13:18:39.141Z,99.90
2023-04-05T13:21:10.393Z,99.90
2023-04-05T13:23:41.809Z,98.80
2023-04-05T13:26:11.816Z,99.30
2023-04-05T13:28:42.338Z,99.90
2023-04-05T13:31:15.122Z,99.20
2023-04-05T13:33:43.680Z,99.90
2023-04-05T13:36:13.741Z,99.90
2023-04-05T13:38:43.186Z,98.80
2023-04-05T13:41:14.367Z,99.00
2023-04-05T13:43:43.878Z,99.60
2023-04-05T13:46:13.476Z,99.70
2023-04-05T13:48:43.487Z,99.30
2023-04-05T13:51:13.049Z,99.90
2023-04-05T13:53:44.277Z,99.90
2023-04-05T13:56:13.752Z,99.00
2023-04-05T13:58:43.336Z,99.90
2023-04-05T14:01:15.549Z,99.30
2023-04-05T14:03:45.210Z,99.70
2023-04-05T14:06:15.080Z,99.70
2023-04-05T14:08:46.027Z,99.50
2023-04-05T14:11:15.633Z,99.30
2023-04-05T14:13:45.297Z,98.00
2023-04-05T14:16:15.754Z,98.40
2023-04-05T14:18:45.843Z,99.30
2023-04-05T14:21:15.465Z,99.20
2023-04-05T14:23:47.394Z,99.90
2023-04-05T14:26:17.130Z,99.90
2023-04-05T14:28:46.613Z,99.10
2023-04-05T14:31:16.580Z,99.90
2023-04-05T14:33:46.257Z,99.90
2023-04-05T14:36:15.721Z,99.50
2023-04-05T14:38:45.883Z,99.10
2023-04-05T14:41:15.894Z,98.70
2023-04-05T14:43:45.444Z,97.70
2023-04-05T14:46:15.231Z,97.90
2023-04-05T14:48:44.913Z,96.40
2023-04-05T14:51:14.785Z,96.80
2023-04-05T14:53:44.858Z,98.00
2023-04-05T14:56:14.359Z,97.80
2023-04-05T14:58:43.830Z,96.80
2023-04-05T15:01:14.355Z,96.80
2023-04-05T15:03:45.946Z,96.90
2023-04-05T15:06:16.773Z,97.30
2023-04-05T15:08:46.318Z,97.90
2023-04-05T15:11:16.398Z,97.50
2023-04-05T15:13:45.876Z,97.90
2023-04-05T15:16:15.397Z,96.70
2023-04-05T15:18:45.282Z,97.30
2023-04-05T15:21:14.908Z,98.00
2023-04-05T15:23:44.448Z,97.90
2023-04-05T15:26:14.160Z,97.90
2023-04-05T15:28:43.711Z,97.70
2023-04-05T15:31:13.354Z,98.20
2023-04-05T15:33:43.133Z,98.30
2023-04-05T15:36:12.619Z,99.00
2023-04-05T15:38:42.183Z,98.50
2023-04-05T15:41:12.336Z,99.30
2023-04-05T15:43:41.890Z,99.00
2023-04-05T15:46:11.542Z,99.00
2023-04-05T15:48:41.845Z,98.90
2023-04-05T15:51:12.252Z,98.90
2023-04-05T15:53:41.842Z,98.70
2023-04-05T15:56:11.647Z,98.40
2023-04-05T15:58:41.193Z,97.60
2023-04-05T16:01:11.649Z,97.70
2023-04-05T16:03:42.221Z,98.10
2023-04-05T16:06:11.991Z,98.40
2023-04-05T16:08:43.821Z,98.00
2023-04-05T16:11:13.371Z,98.70
2023-04-05T16:13:42.932Z,98.70
2023-04-05T16:16:20.592Z,98.20
2023-04-05T16:18:43.989Z,98.20
2023-04-05T16:21:15.487Z,98.10
2023-04-05T16:23:46.719Z,98.30
2023-04-05T16:26:16.919Z,99.10
2023-04-05T16:28:46.399Z,99.10
2023-04-05T16:31:15.975Z,99.40
2023-04-05T16:33:45.529Z,98.50
2023-04-05T16:36:15.164Z,99.10
2023-04-05T16:38:46.792Z,98.40
2023-04-05T16:41:16.613Z,98.00
2023-04-05T16:43:46.556Z,99.10
2023-04-05T16:46:16.119Z,99.80
2023-04-05T16:48:45.724Z,99.90
2023-04-05T16:51:16.473Z,99.90
2023-04-05T16:53:46.746Z,99.90
2023-04-05T16:56:16.370Z,99.90
2023-04-05T16:58:45.929Z,99.90
2023-04-05T17:01:16.627Z,99.90
2023-04-05T17:03:47.248Z,99.90
2023-04-05T17:06:17.601Z,99.90
2023-04-05T17:08:47.088Z,99.90
2023-04-05T17:11:16.560Z,99.90
2023-04-05T17:13:47.088Z,99.90
2023-04-05T17:16:16.823Z,99.90
2023-04-05T17:18:46.574Z,99.90
2023-04-05T17:21:17.252Z,99.90
2023-04-05T17:23:46.792Z,99.10
2023-04-05T17:26:16.746Z,99.10
2023-04-05T17:28:46.830Z,98.90
2023-04-05T17:31:16.953Z,99.40
2023-04-05T17:33:48.708Z,99.90
2023-04-05T17:36:18.936Z,99.90
2023-04-05T17:38:48.932Z,99.90
2023-04-05T17:41:19.262Z,99.90
2023-04-05T17:43:48.834Z,99.90
2023-04-05T17:46:27.376Z,99.90
2023-04-05T17:48:50.728Z,99.70
2023-04-05T17:51:21.071Z,99.90
2023-04-05T17:53:51.286Z,99.90
2023-04-05T17:56:21.918Z,99.90
2023-04-05T17:58:51.520Z,99.90
2023-04-05T18:01:21.416Z,99.90
2023-04-05T18:03:50.982Z,99.90
2023-04-05T18:06:21.245Z,99.90
2023-04-05T18:08:50.724Z,99.90
2023-04-05T18:11:20.276Z,99.90
2023-04-05T18:13:50.419Z,99.90
2023-04-05T18:16:19.874Z,99.90
2023-04-05T18:18:49.441Z,99.90
2023-04-05T18:21:19.012Z,99.90
2023-04-05T18:23:48.994Z,99.90
2023-04-05T18:26:18.648Z,99.90
2023-04-05T18:28:49.131Z,99.90
2023-04-05T18:31:18.584Z,99.90
2023-04-05T18:33:49.489Z,99.90
2023-04-05T18:36:19.113Z,99.90
2023-04-05T18:38:48.662Z,99.90
2023-04-05T18:41:18.416Z,99.90
2023-04-05T18:43:48.368Z,99.90
2023-04-05T18:46:19.558Z,99.90
2023-04-05T18:48:50.734Z,99.90
2023-04-05T18:51:20.354Z,99.90
2023-04-05T18:53:51.365Z,99.90
2023-04-05T18:56:21.867Z,99.90
2023-04-05T18:58:51.638Z,99.90
2023-04-05T19:01:21.721Z,99.90
2023-04-05T19:03:51.225Z,99.90
2023-04-05T19:06:20.739Z,99.90
2023-04-05T19:08:50.462Z,99.90
2023-04-05T19:11:20.576Z,99.90
2023-04-05T19:13:51.528Z,99.90
2023-04-05T19:16:21.151Z,99.90
2023-04-05T19:18:50.689Z,99.90
2023-04-05T19:21:20.857Z,99.90
2023-04-05T19:23:50.658Z,99.90
2023-04-05T19:26:22.435Z,99.90
2023-04-05T19:28:51.431Z,99.90
2023-04-05T19:31:21.589Z,99.90
2023-04-05T19:33:51.651Z,99.90
2023-04-05T19:36:21.789Z,99.90
2023-04-05T19:38:53.845Z,99.90
2023-04-05T19:41:24.014Z,99.90
2023-04-05T19:43:53.499Z,99.90
2023-04-05T19:46:23.858Z,99.90
2023-04-05T19:48:54.822Z,99.90
2023-04-05T19:51:27.376Z,99.90
2023-04-05T19:53:59.864Z,99.90
2023-04-05T19:56:34.476Z,99.90
2023-04-05T19:59:06.967Z,99.90
2023-04-05T20:01:39.457Z,99.90
2023-04-05T20:04:20.706Z,99.90
2023-04-05T20:06:55.321Z,99.90
2023-04-05T20:09:28.824Z,99.90
2023-04-05T20:12:04.063Z,99.90
2023-04-05T20:14:41.457Z,99.90
2023-04-05T20:17:13.249Z,99.90
2023-04-05T20:19:45.016Z,99.90
2023-04-05T20:22:14.608Z,99.90
2023-04-05T20:24:44.156Z,99.90
2023-04-05T20:27:15.888Z,99.90
2023-04-05T20:29:46.433Z,99.90
2023-04-05T20:32:18.011Z,99.90
2023-04-05T20:34:47.604Z,99.90
2023-04-05T20:37:17.737Z,99.90
2023-04-05T20:39:47.215Z,99.90
2023-04-05T20:42:16.999Z,99.90
2023-04-05T20:44:48.130Z,99.90
2023-04-05T20:47:17.660Z,99.90
2023-04-05T20:49:48.206Z,99.90
2023-04-05T20:52:18.208Z,99.90
2023-04-05T20:54:49.809Z,99.90
2023-04-05T20:57:19.311Z,99.90
2023-04-05T20:59:48.798Z,99.90
2023-04-05T21:02:18.687Z,99.90
2023-04-05T21:04:50.082Z,99.90
2023-04-05T21:07:19.559Z,99.90
2023-04-05T21:09:49.902Z,99.90
2023-04-05T21:12:19.455Z,99.90
2023-04-05T21:14:49.010Z,99.90
2023-04-05T21:17:18.978Z,99.90
2023-04-05T21:19:48.488Z,99.90
2023-04-05T21:22:17.964Z,99.90
2023-04-05T21:24:47.632Z,99.90
2023-04-05T21:27:17.104Z,99.90
2023-04-05T21:29:46.590Z,99.90
2023-04-05T21:32:16.187Z,99.90
2023-04-05T21:34:45.666Z,99.90
2023-04-05T21:37:15.725Z,99.90
2023-04-05T21:39:46.039Z,99.90
2023-04-05T21:42:15.523Z,99.90
2023-04-05T21:44:45.010Z,99.90
2023-04-05T21:47:14.588Z,99.90
2023-04-05T21:49:44.138Z,99.90
2023-04-05T21:52:13.721Z,99.90
2023-04-05T21:54:43.308Z,99.90
2023-04-05T21:57:13.075Z,99.90
2023-04-05T21:59:42.652Z,99.90
2023-04-05T22:02:12.396Z,99.90
2023-04-05T22:04:42.176Z,99.90
2023-04-05T22:07:11.746Z,99.90
2023-04-05T22:09:41.457Z,99.90
2023-04-05T22:12:11.002Z,99.90
2023-04-05T22:14:42.222Z,99.90
2023-04-05T22:17:11.702Z,99.90
2023-04-05T22:19:42.916Z,99.90
2023-04-05T22:22:14.329Z,99.90
2023-04-05T22:24:44.171Z,99.90
2023-04-05T22:27:13.999Z,99.90
2023-04-05T22:29:43.438Z,99.90
2023-04-05T22:32:13.152Z,99.90
2023-04-05T22:34:43.402Z,99.90
2023-04-05T22:37:13.369Z,99.90
2023-04-05T22:39:42.847Z,99.90
2023-04-05T22:42:12.326Z,99.90
2023-04-05T22:44:42.087Z,99.90
2023-04-05T22:47:12.038Z,99.90
2023-04-05T22:49:41.787Z,99.90
2023-04-05T22:52:11.311Z,99.90
2023-04-05T22:54:40.968Z,99.90
2023-04-05T22:57:11.401Z,99.90
2023-04-05T22:59:41.551Z,99.90
2023-04-05T23:02:12.533Z,99.90
2023-04-05T23:04:42.234Z,99.90
2023-04-05T23:07:11.762Z,99.90
2023-04-05T23:09:41.378Z,99.90
2023-04-05T23:12:11.540Z,99.90
